Terminal Aerodrome Forecast
Issued by NWS Omaha/Valley, NE

Home | Current Version | Previous Version | Text Only | Print | Product List | Glossary Off
Versions: 1 2 3 4 5 6 7 8 9 10 11 12 13 14 15 16 17 18 19 20 21 22 23

000
FTUS43 KOAX 241120
TAFOFK
TAF
KOFK 241120Z 2412/2512 18006KT P6SM VCTS SCT020CB BKN080
      TEMPO 2412/2415 5SM TSRA BKN020 OVC040CB
     FM241600 18012G20KT P6SM BKN080
     FM241900 18016G24KT P6SM SCT030 BKN150 PROB30 2422/2502 4SM
      -TSRA OVC040CB
     FM250400 17008KT P6SM BKN100=

USA.gov is the U.S. government's official web portal to all federal, state and local government web resources and services.